sensor_id;sensor_type;location;lat;lon;timestamp;temperature;humidity
24468;DHT22;12634;50.852;5.676;2023-01-25T00:00:05;1.30;99.90
24468;DHT22;12634;50.852;5.676;2023-01-25T00:02:33;1.30;99.90
24468;DHT22;12634;50.852;5.676;2023-01-25T00:05:01;1.30;99.90
24468;DHT22;12634;50.852;5.676;2023-01-25T00:07:28;1.30;99.90
24468;DHT22;12634;50.852;5.676;2023-01-25T00:09:55;1.30;99.90
24468;DHT22;12634;50.852;5.676;2023-01-25T00:12:24;1.30;99.90
24468;DHT22;12634;50.852;5.676;2023-01-25T00:14:51;1.30;99.90
24468;DHT22;12634;50.852;5.676;2023-01-25T00:17:18;1.30;99.90
24468;DHT22;12634;50.852;5.676;2023-01-25T00:19:45;1.30;99.90
24468;DHT22;12634;50.852;5.676;2023-01-25T00:22:12;1.30;99.90
24468;DHT22;12634;50.852;5.676;2023-01-25T00:24:39;1.30;99.90
24468;DHT22;12634;50.852;5.676;2023-01-25T00:27:07;1.30;99.90
24468;DHT22;12634;50.852;5.676;2023-01-25T00:29:35;1.20;99.90
24468;DHT22;12634;50.852;5.676;2023-01-25T00:32:32;1.30;99.90
24468;DHT22;12634;50.852;5.676;2023-01-25T00:35:02;1.30;99.90
24468;DHT22;12634;50.852;5.676;2023-01-25T00:37:35;1.30;99.90
24468;DHT22;12634;50.852;5.676;2023-01-25T00:40:04;1.40;99.90
24468;DHT22;12634;50.852;5.676;2023-01-25T00:42:31;1.40;99.90
24468;DHT22;12634;50.852;5.676;2023-01-25T00:45:00;1.30;99.90
24468;DHT22;12634;50.852;5.676;2023-01-25T00:47:27;1.30;99.90
24468;DHT22;12634;50.852;5.676;2023-01-25T00:49:54;1.30;99.90
24468;DHT22;12634;50.852;5.676;2023-01-25T00:52:21;1.40;99.90
24468;DHT22;12634;50.852;5.676;2023-01-25T00:54:49;1.30;99.90
24468;DHT22;12634;50.852;5.676;2023-01-25T00:57:16;1.30;99.90
24468;DHT22;12634;50.852;5.676;2023-01-25T00:59:43;1.30;99.90
24468;DHT22;12634;50.852;5.676;2023-01-25T01:02:13;1.30;99.90
24468;DHT22;12634;50.852;5.676;2023-01-25T01:04:40;1.30;99.90
24468;DHT22;12634;50.852;5.676;2023-01-25T01:07:07;1.30;99.90
24468;DHT22;12634;50.852;5.676;2023-01-25T01:09:35;1.20;99.90
24468;DHT22;12634;50.852;5.676;2023-01-25T01:12:02;1.20;99.90
24468;DHT22;12634;50.852;5.676;2023-01-25T01:14:29;1.10;99.90
24468;DHT22;12634;50.852;5.676;2023-01-25T01:16:56;1.10;99.90
24468;DHT22;12634;50.852;5.676;2023-01-25T01:19:25;1.00;99.90
24468;DHT22;12634;50.852;5.676;2023-01-25T01:21:52;1.00;99.90
24468;DHT22;12634;50.852;5.676;2023-01-25T01:24:19;1.00;99.90
24468;DHT22;12634;50.852;5.676;2023-01-25T01:26:46;1.00;99.90
24468;DHT22;12634;50.852;5.676;2023-01-25T01:29:14;1.00;99.90
24468;DHT22;12634;50.852;5.676;2023-01-25T01:31:41;1.00;99.90
24468;DHT22;12634;50.852;5.676;2023-01-25T01:34:12;1.00;99.90
24468;DHT22;12634;50.852;5.676;2023-01-25T01:36:41;1.00;99.90
24468;DHT22;12634;50.852;5.676;2023-01-25T01:39:09;1.00;99.90
24468;DHT22;12634;50.852;5.676;2023-01-25T01:41:36;1.00;99.90
24468;DHT22;12634;50.852;5.676;2023-01-25T01:44:04;1.00;99.90
24468;DHT22;12634;50.852;5.676;2023-01-25T01:46:33;1.00;99.90
24468;DHT22;12634;50.852;5.676;2023-01-25T01:49:04;1.00;99.90
24468;DHT22;12634;50.852;5.676;2023-01-25T01:51:43;1.00;99.90
24468;DHT22;12634;50.852;5.676;2023-01-25T01:54:15;1.00;99.90
24468;DHT22;12634;50.852;5.676;2023-01-25T01:56:50;1.00;99.90
24468;DHT22;12634;50.852;5.676;2023-01-25T01:59:18;1.00;99.90
24468;DHT22;12634;50.852;5.676;2023-01-25T02:01:47;1.00;99.90
24468;DHT22;12634;50.852;5.676;2023-01-25T02:04:15;1.00;99.90
24468;DHT22;12634;50.852;5.676;2023-01-25T02:06:49;1.00;99.90
24468;DHT22;12634;50.852;5.676;2023-01-25T02:09:21;1.00;99.90
24468;DHT22;12634;50.852;5.676;2023-01-25T02:11:50;1.00;99.90
24468;DHT22;12634;50.852;5.676;2023-01-25T02:14:18;1.00;99.90
24468;DHT22;12634;50.852;5.676;2023-01-25T02:16:46;1.00;99.90
24468;DHT22;12634;50.852;5.676;2023-01-25T02:19:19;0.90;99.90
24468;DHT22;12634;50.852;5.676;2023-01-25T02:21:53;0.90;99.90
24468;DHT22;12634;50.852;5.676;2023-01-25T02:24:24;0.90;99.90
24468;DHT22;12634;50.852;5.676;2023-01-25T02:26:54;0.90;99.90
24468;DHT22;12634;50.852;5.676;2023-01-25T02:29:24;1.00;99.90
24468;DHT22;12634;50.852;5.676;2023-01-25T02:31:58;1.00;99.90
24468;DHT22;12634;50.852;5.676;2023-01-25T02:34:26;1.00;99.90
24468;DHT22;12634;50.852;5.676;2023-01-25T02:36:53;0.90;99.90
24468;DHT22;12634;50.852;5.676;2023-01-25T02:39:20;0.90;99.90
24468;DHT22;12634;50.852;5.676;2023-01-25T02:41:50;0.90;99.90
24468;DHT22;12634;50.852;5.676;2023-01-25T02:44:21;0.90;99.90
24468;DHT22;12634;50.852;5.676;2023-01-25T02:46:49;0.90;99.90
24468;DHT22;12634;50.852;5.676;2023-01-25T02:49:17;0.90;99.90
24468;DHT22;12634;50.852;5.676;2023-01-25T02:51:54;0.90;99.90
24468;DHT22;12634;50.852;5.676;2023-01-25T02:54:23;0.90;99.90
24468;DHT22;12634;50.852;5.676;2023-01-25T02:56:51;0.90;99.90
24468;DHT22;12634;50.852;5.676;2023-01-25T02:59:18;0.90;99.90
24468;DHT22;12634;50.852;5.676;2023-01-25T03:01:45;0.90;99.90
24468;DHT22;12634;50.852;5.676;2023-01-25T03:04:13;0.80;99.90
24468;DHT22;12634;50.852;5.676;2023-01-25T03:06:41;0.80;99.90
24468;DHT22;12634;50.852;5.676;2023-01-25T03:09:10;0.90;99.90
24468;DHT22;12634;50.852;5.676;2023-01-25T03:11:38;0.90;99.90
24468;DHT22;12634;50.852;5.676;2023-01-25T03:14:05;0.90;99.90
24468;DHT22;12634;50.852;5.676;2023-01-25T03:16:32;0.90;99.90
24468;DHT22;12634;50.852;5.676;2023-01-25T03:18:59;0.90;99.90
24468;DHT22;12634;50.852;5.676;2023-01-25T03:21:26;0.90;99.90
24468;DHT22;12634;50.852;5.676;2023-01-25T03:23:55;0.90;99.90
24468;DHT22;12634;50.852;5.676;2023-01-25T03:26:25;0.90;99.90
24468;DHT22;12634;50.852;5.676;2023-01-25T03:28:52;0.90;99.90
24468;DHT22;12634;50.852;5.676;2023-01-25T03:31:19;0.90;99.90
24468;DHT22;12634;50.852;5.676;2023-01-25T03:33:46;0.90;99.90
24468;DHT22;12634;50.852;5.676;2023-01-25T03:36:14;0.90;99.90
24468;DHT22;12634;50.852;5.676;2023-01-25T03:38:41;0.90;99.90
24468;DHT22;12634;50.852;5.676;2023-01-25T03:41:08;0.90;99.90
24468;DHT22;12634;50.852;5.676;2023-01-25T03:43:39;0.90;99.90
24468;DHT22;12634;50.852;5.676;2023-01-25T03:46:06;0.90;99.90
24468;DHT22;12634;50.852;5.676;2023-01-25T03:48:33;0.90;99.90
24468;DHT22;12634;50.852;5.676;2023-01-25T03:51:01;0.90;99.90
24468;DHT22;12634;50.852;5.676;2023-01-25T03:53:29;0.90;99.90
24468;DHT22;12634;50.852;5.676;2023-01-25T03:55:59;0.90;99.90
24468;DHT22;12634;50.852;5.676;2023-01-25T03:58:27;0.90;99.90
24468;DHT22;12634;50.852;5.676;2023-01-25T04:00:58;0.90;99.90
24468;DHT22;12634;50.852;5.676;2023-01-25T04:03:25;0.80;99.90
24468;DHT22;12634;50.852;5.676;2023-01-25T04:05:54;0.90;99.90
24468;DHT22;12634;50.852;5.676;2023-01-25T04:08:21;0.80;99.90
24468;DHT22;12634;50.852;5.676;2023-01-25T04:10:50;0.80;99.90
24468;DHT22;12634;50.852;5.676;2023-01-25T04:13:18;0.80;99.90
24468;DHT22;12634;50.852;5.676;2023-01-25T04:15:46;0.90;99.90
24468;DHT22;12634;50.852;5.676;2023-01-25T04:18:15;0.80;99.90
24468;DHT22;12634;50.852;5.676;2023-01-25T04:20:42;0.90;99.90
24468;DHT22;12634;50.852;5.676;2023-01-25T04:23:10;0.80;99.90
24468;DHT22;12634;50.852;5.676;2023-01-25T04:25:37;0.80;99.90
24468;DHT22;12634;50.852;5.676;2023-01-25T04:28:05;0.80;99.90
24468;DHT22;12634;50.852;5.676;2023-01-25T04:30:32;0.80;99.90
24468;DHT22;12634;50.852;5.676;2023-01-25T04:33:03;0.80;99.90
24468;DHT22;12634;50.852;5.676;2023-01-25T04:35:32;0.80;99.90
24468;DHT22;12634;50.852;5.676;2023-01-25T04:38:00;0.80;99.90
24468;DHT22;12634;50.852;5.676;2023-01-25T04:40:28;0.80;99.90
24468;DHT22;12634;50.852;5.676;2023-01-25T04:42:55;0.80;99.90
24468;DHT22;12634;50.852;5.676;2023-01-25T04:45:22;0.80;99.90
24468;DHT22;12634;50.852;5.676;2023-01-25T04:47:55;0.80;99.90
24468;DHT22;12634;50.852;5.676;2023-01-25T04:50:22;0.80;99.90
24468;DHT22;12634;50.852;5.676;2023-01-25T04:52:51;0.80;99.90
24468;DHT22;12634;50.852;5.676;2023-01-25T04:55:18;0.80;99.90
24468;DHT22;12634;50.852;5.676;2023-01-25T04:57:48;0.80;99.90
24468;DHT22;12634;50.852;5.676;2023-01-25T05:00:16;0.90;99.90
24468;DHT22;12634;50.852;5.676;2023-01-25T05:02:43;0.80;99.90
24468;DHT22;12634;50.852;5.676;2023-01-25T05:05:11;0.90;99.90
24468;DHT22;12634;50.852;5.676;2023-01-25T05:07:38;0.80;99.90
24468;DHT22;12634;50.852;5.676;2023-01-25T05:10:09;0.80;99.90
24468;DHT22;12634;50.852;5.676;2023-01-25T05:12:36;0.80;99.90
24468;DHT22;12634;50.852;5.676;2023-01-25T05:15:04;0.80;99.90
24468;DHT22;12634;50.852;5.676;2023-01-25T05:17:32;0.80;99.90
24468;DHT22;12634;50.852;5.676;2023-01-25T05:19:59;0.80;99.90
24468;DHT22;12634;50.852;5.676;2023-01-25T05:22:26;0.90;99.90
24468;DHT22;12634;50.852;5.676;2023-01-25T05:24:54;0.80;99.90
24468;DHT22;12634;50.852;5.676;2023-01-25T05:27:22;0.80;99.90
24468;DHT22;12634;50.852;5.676;2023-01-25T05:29:48;0.80;99.90
24468;DHT22;12634;50.852;5.676;2023-01-25T05:32:17;0.80;99.90
24468;DHT22;12634;50.852;5.676;2023-01-25T05:34:45;0.80;99.90
24468;DHT22;12634;50.852;5.676;2023-01-25T05:37:14;0.80;99.90
24468;DHT22;12634;50.852;5.676;2023-01-25T05:39:42;0.80;99.90
24468;DHT22;12634;50.852;5.676;2023-01-25T05:42:11;0.80;99.90
24468;DHT22;12634;50.852;5.676;2023-01-25T05:44:40;0.80;99.90
24468;DHT22;12634;50.852;5.676;2023-01-25T05:47:10;0.80;99.90
24468;DHT22;12634;50.852;5.676;2023-01-25T05:49:38;0.80;99.90
24468;DHT22;12634;50.852;5.676;2023-01-25T05:52:05;0.80;99.90
24468;DHT22;12634;50.852;5.676;2023-01-25T05:54:32;0.80;99.90
24468;DHT22;12634;50.852;5.676;2023-01-25T05:56:59;0.80;99.90
24468;DHT22;12634;50.852;5.676;2023-01-25T05:59:27;0.80;99.90
24468;DHT22;12634;50.852;5.676;2023-01-25T06:01:55;0.80;99.90
24468;DHT22;12634;50.852;5.676;2023-01-25T06:04:23;0.80;99.90
24468;DHT22;12634;50.852;5.676;2023-01-25T06:06:50;0.80;99.90
24468;DHT22;12634;50.852;5.676;2023-01-25T06:09:17;0.80;99.90
24468;DHT22;12634;50.852;5.676;2023-01-25T06:11:44;0.80;99.90
24468;DHT22;12634;50.852;5.676;2023-01-25T06:14:11;0.80;99.90
24468;DHT22;12634;50.852;5.676;2023-01-25T06:16:39;0.80;99.90
24468;DHT22;12634;50.852;5.676;2023-01-25T06:19:08;0.80;99.90
24468;DHT22;12634;50.852;5.676;2023-01-25T06:21:35;0.90;99.90
24468;DHT22;12634;50.852;5.676;2023-01-25T06:24:03;0.90;99.90
24468;DHT22;12634;50.852;5.676;2023-01-25T06:26:30;0.80;99.90
24468;DHT22;12634;50.852;5.676;2023-01-25T06:28:57;0.80;99.90
24468;DHT22;12634;50.852;5.676;2023-01-25T06:31:24;0.80;99.90
24468;DHT22;12634;50.852;5.676;2023-01-25T06:33:52;0.80;99.90
24468;DHT22;12634;50.852;5.676;2023-01-25T06:36:21;0.80;99.90
24468;DHT22;12634;50.852;5.676;2023-01-25T06:38:49;0.80;99.90
24468;DHT22;12634;50.852;5.676;2023-01-25T06:41:16;0.80;99.90
24468;DHT22;12634;50.852;5.676;2023-01-25T06:43:45;0.70;99.90
24468;DHT22;12634;50.852;5.676;2023-01-25T06:46:12;0.80;99.90
24468;DHT22;12634;50.852;5.676;2023-01-25T06:48:39;0.80;99.90
24468;DHT22;12634;50.852;5.676;2023-01-25T06:51:11;0.80;99.90
24468;DHT22;12634;50.852;5.676;2023-01-25T06:53:41;0.80;99.90
24468;DHT22;12634;50.852;5.676;2023-01-25T06:56:10;0.80;99.90
24468;DHT22;12634;50.852;5.676;2023-01-25T06:58:39;0.80;99.90
24468;DHT22;12634;50.852;5.676;2023-01-25T07:01:07;0.80;99.90
24468;DHT22;12634;50.852;5.676;2023-01-25T07:03:37;0.80;99.90
24468;DHT22;12634;50.852;5.676;2023-01-25T07:06:06;0.80;99.90
24468;DHT22;12634;50.852;5.676;2023-01-25T07:08:34;0.90;99.90
24468;DHT22;12634;50.852;5.676;2023-01-25T07:11:05;0.80;99.90
24468;DHT22;12634;50.852;5.676;2023-01-25T07:13:34;0.80;99.90
24468;DHT22;12634;50.852;5.676;2023-01-25T07:16:04;0.90;99.90
24468;DHT22;12634;50.852;5.676;2023-01-25T07:18:32;0.90;99.90
24468;DHT22;12634;50.852;5.676;2023-01-25T07:21:04;0.80;99.90
24468;DHT22;12634;50.852;5.676;2023-01-25T07:23:31;0.80;99.90
24468;DHT22;12634;50.852;5.676;2023-01-25T07:25:59;0.80;99.90
24468;DHT22;12634;50.852;5.676;2023-01-25T07:28:30;0.80;99.90
24468;DHT22;12634;50.852;5.676;2023-01-25T07:31:03;0.80;99.90
24468;DHT22;12634;50.852;5.676;2023-01-25T07:33:32;0.80;99.90
24468;DHT22;12634;50.852;5.676;2023-01-25T07:35:59;0.90;99.90
24468;DHT22;12634;50.852;5.676;2023-01-25T07:38:26;0.90;99.90
24468;DHT22;12634;50.852;5.676;2023-01-25T07:40:53;0.80;99.90
24468;DHT22;12634;50.852;5.676;2023-01-25T07:43:21;0.90;99.90
24468;DHT22;12634;50.852;5.676;2023-01-25T07:45:49;0.80;99.90
24468;DHT22;12634;50.852;5.676;2023-01-25T07:48:17;0.80;99.90
24468;DHT22;12634;50.852;5.676;2023-01-25T07:50:45;0.90;99.90
24468;DHT22;12634;50.852;5.676;2023-01-25T07:53:14;0.90;99.90
24468;DHT22;12634;50.852;5.676;2023-01-25T07:55:41;0.90;99.90
24468;DHT22;12634;50.852;5.676;2023-01-25T07:58:10;0.80;99.90
24468;DHT22;12634;50.852;5.676;2023-01-25T08:00:37;0.80;99.90
24468;DHT22;12634;50.852;5.676;2023-01-25T08:03:06;0.80;99.90
24468;DHT22;12634;50.852;5.676;2023-01-25T08:05:34;0.90;99.90
24468;DHT22;12634;50.852;5.676;2023-01-25T08:08:02;0.90;99.90
24468;DHT22;12634;50.852;5.676;2023-01-25T08:10:29;0.90;99.90
24468;DHT22;12634;50.852;5.676;2023-01-25T08:12:56;0.90;99.90
24468;DHT22;12634;50.852;5.676;2023-01-25T08:15:23;0.90;99.90
24468;DHT22;12634;50.852;5.676;2023-01-25T08:17:50;0.90;99.90
24468;DHT22;12634;50.852;5.676;2023-01-25T08:20:19;0.90;99.90
24468;DHT22;12634;50.852;5.676;2023-01-25T08:22:47;0.90;99.90
24468;DHT22;12634;50.852;5.676;2023-01-25T08:25:14;0.90;99.90
24468;DHT22;12634;50.852;5.676;2023-01-25T08:27:41;0.90;99.90
24468;DHT22;12634;50.852;5.676;2023-01-25T08:30:10;0.90;99.90
24468;DHT22;12634;50.852;5.676;2023-01-25T08:32:37;0.90;99.90
24468;DHT22;12634;50.852;5.676;2023-01-25T08:35:06;0.90;99.90
24468;DHT22;12634;50.852;5.676;2023-01-25T08:37:35;0.90;99.90
24468;DHT22;12634;50.852;5.676;2023-01-25T08:40:02;0.90;99.90
24468;DHT22;12634;50.852;5.676;2023-01-25T08:42:29;0.90;99.90
24468;DHT22;12634;50.852;5.676;2023-01-25T08:44:56;0.90;99.90
24468;DHT22;12634;50.852;5.676;2023-01-25T08:47:23;1.00;99.90
24468;DHT22;12634;50.852;5.676;2023-01-25T08:49:51;1.00;99.90
24468;DHT22;12634;50.852;5.676;2023-01-25T08:52:20;1.10;99.90
24468;DHT22;12634;50.852;5.676;2023-01-25T08:54:48;1.00;99.90
24468;DHT22;12634;50.852;5.676;2023-01-25T08:57:15;1.00;99.90
24468;DHT22;12634;50.852;5.676;2023-01-25T08:59:42;1.00;99.90
24468;DHT22;12634;50.852;5.676;2023-01-25T09:02:11;1.00;99.90
24468;DHT22;12634;50.852;5.676;2023-01-25T09:04:38;1.00;99.90
24468;DHT22;12634;50.852;5.676;2023-01-25T09:07:05;0.90;99.90
24468;DHT22;12634;50.852;5.676;2023-01-25T09:09:32;0.90;99.90
24468;DHT22;12634;50.852;5.676;2023-01-25T09:12:01;0.90;99.90
24468;DHT22;12634;50.852;5.676;2023-01-25T09:14:28;0.90;99.90
24468;DHT22;12634;50.852;5.676;2023-01-25T09:16:55;1.00;99.90
24468;DHT22;12634;50.852;5.676;2023-01-25T09:19:23;0.90;99.90
24468;DHT22;12634;50.852;5.676;2023-01-25T09:21:50;0.90;99.90
24468;DHT22;12634;50.852;5.676;2023-01-25T09:24:17;0.90;99.90
24468;DHT22;12634;50.852;5.676;2023-01-25T09:26:44;0.80;99.90
24468;DHT22;12634;50.852;5.676;2023-01-25T09:29:13;0.90;99.90
24468;DHT22;12634;50.852;5.676;2023-01-25T09:31:40;0.90;99.90
24468;DHT22;12634;50.852;5.676;2023-01-25T09:34:08;0.80;99.90
24468;DHT22;12634;50.852;5.676;2023-01-25T09:36:36;0.90;99.90
24468;DHT22;12634;50.852;5.676;2023-01-25T09:39:04;0.90;99.90
24468;DHT22;12634;50.852;5.676;2023-01-25T09:41:45;0.90;99.90
24468;DHT22;12634;50.852;5.676;2023-01-25T09:44:30;1.00;99.90
24468;DHT22;12634;50.852;5.676;2023-01-25T09:47:05;0.90;99.90
24468;DHT22;12634;50.852;5.676;2023-01-25T09:49:57;0.90;99.90
24468;DHT22;12634;50.852;5.676;2023-01-25T09:52:47;0.90;99.90
24468;DHT22;12634;50.852;5.676;2023-01-25T09:55:21;0.90;99.90
24468;DHT22;12634;50.852;5.676;2023-01-25T09:57:51;0.80;99.90
24468;DHT22;12634;50.852;5.676;2023-01-25T10:00:29;0.80;99.90
24468;DHT22;12634;50.852;5.676;2023-01-25T10:03:02;0.80;99.90
24468;DHT22;12634;50.852;5.676;2023-01-25T10:05:33;0.80;99.90
24468;DHT22;12634;50.852;5.676;2023-01-25T10:08:05;0.80;99.90
24468;DHT22;12634;50.852;5.676;2023-01-25T10:10:38;0.80;99.90
24468;DHT22;12634;50.852;5.676;2023-01-25T10:13:10;0.80;99.90
24468;DHT22;12634;50.852;5.676;2023-01-25T10:15:42;0.90;99.90
24468;DHT22;12634;50.852;5.676;2023-01-25T10:18:18;0.90;99.90
24468;DHT22;12634;50.852;5.676;2023-01-25T10:20:52;0.90;99.90
24468;DHT22;12634;50.852;5.676;2023-01-25T10:23:32;0.80;99.90
24468;DHT22;12634;50.852;5.676;2023-01-25T10:26:07;0.90;99.90
24468;DHT22;12634;50.852;5.676;2023-01-25T10:28:41;1.00;99.90
24468;DHT22;12634;50.852;5.676;2023-01-25T10:31:17;1.00;99.90
24468;DHT22;12634;50.852;5.676;2023-01-25T10:33:46;0.90;99.90
24468;DHT22;12634;50.852;5.676;2023-01-25T10:36:15;0.90;99.90
24468;DHT22;12634;50.852;5.676;2023-01-25T10:38:45;1.00;99.90
24468;DHT22;12634;50.852;5.676;2023-01-25T10:41:18;1.00;99.90
24468;DHT22;12634;50.852;5.676;2023-01-25T10:43:46;1.10;99.90
24468;DHT22;12634;50.852;5.676;2023-01-25T10:46:36;1.00;99.90
24468;DHT22;12634;50.852;5.676;2023-01-25T10:49:17;1.00;99.90
24468;DHT22;12634;50.852;5.676;2023-01-25T10:51:46;1.10;99.90
24468;DHT22;12634;50.852;5.676;2023-01-25T10:54:14;1.10;99.90
24468;DHT22;12634;50.852;5.676;2023-01-25T10:56:43;1.10;99.90
24468;DHT22;12634;50.852;5.676;2023-01-25T10:59:16;1.10;99.90
24468;DHT22;12634;50.852;5.676;2023-01-25T11:01:46;1.10;99.90
24468;DHT22;12634;50.852;5.676;2023-01-25T11:04:29;1.10;99.90
24468;DHT22;12634;50.852;5.676;2023-01-25T11:06:57;1.30;99.90
24468;DHT22;12634;50.852;5.676;2023-01-25T11:09:36;1.20;99.90
24468;DHT22;12634;50.852;5.676;2023-01-25T11:12:14;1.20;99.90
24468;DHT22;12634;50.852;5.676;2023-01-25T11:14:42;1.30;99.90
24468;DHT22;12634;50.852;5.676;2023-01-25T11:17:24;1.30;99.90
24468;DHT22;12634;50.852;5.676;2023-01-25T11:20:10;1.30;99.90
24468;DHT22;12634;50.852;5.676;2023-01-25T11:22:48;1.20;99.90
24468;DHT22;12634;50.852;5.676;2023-01-25T11:25:27;1.20;99.90
24468;DHT22;12634;50.852;5.676;2023-01-25T11:28:15;1.20;99.90
24468;DHT22;12634;50.852;5.676;2023-01-25T11:30:44;1.20;99.90
24468;DHT22;12634;50.852;5.676;2023-01-25T11:33:14;1.10;99.90
24468;DHT22;12634;50.852;5.676;2023-01-25T11:38:51;1.10;99.90
24468;DHT22;12634;50.852;5.676;2023-01-25T11:41:29;1.10;99.90
24468;DHT22;12634;50.852;5.676;2023-01-25T11:44:11;1.10;99.90
24468;DHT22;12634;50.852;5.676;2023-01-25T11:46:46;1.10;99.90
24468;DHT22;12634;50.852;5.676;2023-01-25T11:49:30;1.10;99.90
24468;DHT22;12634;50.852;5.676;2023-01-25T11:52:10;1.00;99.90
24468;DHT22;12634;50.852;5.676;2023-01-25T11:54:50;1.00;99.90
24468;DHT22;12634;50.852;5.676;2023-01-25T11:57:38;1.00;99.90
24468;DHT22;12634;50.852;5.676;2023-01-25T12:00:25;0.90;99.90
24468;DHT22;12634;50.852;5.676;2023-01-25T12:03:22;1.00;99.90
24468;DHT22;12634;50.852;5.676;2023-01-25T12:05:59;1.10;99.90
24468;DHT22;12634;50.852;5.676;2023-01-25T12:08:45;1.00;99.90
24468;DHT22;12634;50.852;5.676;2023-01-25T12:11:28;1.00;99.90
24468;DHT22;12634;50.852;5.676;2023-01-25T12:14:07;1.00;99.90
24468;DHT22;12634;50.852;5.676;2023-01-25T12:16:47;1.00;99.90
24468;DHT22;12634;50.852;5.676;2023-01-25T12:19:26;0.90;99.90
24468;DHT22;12634;50.852;5.676;2023-01-25T12:22:13;0.90;99.90
24468;DHT22;12634;50.852;5.676;2023-01-25T12:24:51;0.90;99.90
24468;DHT22;12634;50.852;5.676;2023-01-25T12:27:31;0.90;99.90
24468;DHT22;12634;50.852;5.676;2023-01-25T12:30:10;0.90;99.90
24468;DHT22;12634;50.852;5.676;2023-01-25T12:32:40;0.90;99.90
24468;DHT22;12634;50.852;5.676;2023-01-25T12:35:21;0.70;99.90
24468;DHT22;12634;50.852;5.676;2023-01-25T12:37:55;0.70;99.90
24468;DHT22;12634;50.852;5.676;2023-01-25T12:40:39;0.80;99.90
24468;DHT22;12634;50.852;5.676;2023-01-25T12:43:13;0.80;99.90
24468;DHT22;12634;50.852;5.676;2023-01-25T12:45:43;0.80;99.90
24468;DHT22;12634;50.852;5.676;2023-01-25T12:48:17;0.70;99.90
24468;DHT22;12634;50.852;5.676;2023-01-25T12:50:51;0.80;99.90
24468;DHT22;12634;50.852;5.676;2023-01-25T12:53:24;0.70;99.90
24468;DHT22;12634;50.852;5.676;2023-01-25T12:55:53;0.80;99.90
24468;DHT22;12634;50.852;5.676;2023-01-25T12:58:28;0.80;99.90
24468;DHT22;12634;50.852;5.676;2023-01-25T13:01:02;0.80;99.90
24468;DHT22;12634;50.852;5.676;2023-01-25T13:03:33;0.70;99.90
24468;DHT22;12634;50.852;5.676;2023-01-25T13:06:11;0.70;99.90
24468;DHT22;12634;50.852;5.676;2023-01-25T13:08:54;0.60;99.90
24468;DHT22;12634;50.852;5.676;2023-01-25T13:11:29;0.60;99.90
24468;DHT22;12634;50.852;5.676;2023-01-25T13:14:19;0.60;99.90
24468;DHT22;12634;50.852;5.676;2023-01-25T13:16:52;0.60;99.90
24468;DHT22;12634;50.852;5.676;2023-01-25T13:19:20;0.70;99.90
24468;DHT22;12634;50.852;5.676;2023-01-25T13:21:50;0.50;99.90
24468;DHT22;12634;50.852;5.676;2023-01-25T13:24:23;0.60;99.90
24468;DHT22;12634;50.852;5.676;2023-01-25T13:27:03;0.60;99.90
24468;DHT22;12634;50.852;5.676;2023-01-25T13:29:45;0.60;99.90
24468;DHT22;12634;50.852;5.676;2023-01-25T13:38:35;0.40;99.90
24468;DHT22;12634;50.852;5.676;2023-01-25T13:41:06;0.50;99.90
24468;DHT22;12634;50.852;5.676;2023-01-25T13:43:38;0.50;99.90
24468;DHT22;12634;50.852;5.676;2023-01-25T13:46:07;0.40;99.90
24468;DHT22;12634;50.852;5.676;2023-01-25T13:48:48;0.40;99.90
24468;DHT22;12634;50.852;5.676;2023-01-25T13:51:18;0.40;99.90
24468;DHT22;12634;50.852;5.676;2023-01-25T13:53:55;0.40;99.90
24468;DHT22;12634;50.852;5.676;2023-01-25T13:56:30;0.40;99.90
24468;DHT22;12634;50.852;5.676;2023-01-25T13:58:57;0.40;99.90
24468;DHT22;12634;50.852;5.676;2023-01-25T14:01:25;0.30;99.90
24468;DHT22;12634;50.852;5.676;2023-01-25T14:03:55;0.30;99.90
24468;DHT22;12634;50.852;5.676;2023-01-25T14:06:26;0.40;99.90
24468;DHT22;12634;50.852;5.676;2023-01-25T14:08:56;0.50;99.90
24468;DHT22;12634;50.852;5.676;2023-01-25T14:11:27;0.50;99.90
24468;DHT22;12634;50.852;5.676;2023-01-25T14:13:59;0.50;99.90
24468;DHT22;12634;50.852;5.676;2023-01-25T14:16:28;0.50;99.90
24468;DHT22;12634;50.852;5.676;2023-01-25T14:19:08;0.40;99.90
24468;DHT22;12634;50.852;5.676;2023-01-25T14:21:44;0.40;99.90
24468;DHT22;12634;50.852;5.676;2023-01-25T14:24:16;0.40;99.90
24468;DHT22;12634;50.852;5.676;2023-01-25T14:26:46;0.40;99.90
24468;DHT22;12634;50.852;5.676;2023-01-25T14:29:18;0.40;99.90
24468;DHT22;12634;50.852;5.676;2023-01-25T14:31:48;0.40;99.90
24468;DHT22;12634;50.852;5.676;2023-01-25T14:34:18;0.40;99.90
24468;DHT22;12634;50.852;5.676;2023-01-25T14:36:45;0.30;99.90
24468;DHT22;12634;50.852;5.676;2023-01-25T14:39:19;0.30;99.90
24468;DHT22;12634;50.852;5.676;2023-01-25T14:41:52;0.30;99.90
24468;DHT22;12634;50.852;5.676;2023-01-25T14:44:20;0.30;99.90
24468;DHT22;12634;50.852;5.676;2023-01-25T14:46:48;0.30;99.90
24468;DHT22;12634;50.852;5.676;2023-01-25T14:49:17;0.30;99.90
24468;DHT22;12634;50.852;5.676;2023-01-25T14:51:54;0.40;99.90
24468;DHT22;12634;50.852;5.676;2023-01-25T14:54:24;0.30;99.90
24468;DHT22;12634;50.852;5.676;2023-01-25T14:56:55;0.30;99.90
24468;DHT22;12634;50.852;5.676;2023-01-25T14:59:31;0.30;99.90
24468;DHT22;12634;50.852;5.676;2023-01-25T15:02:02;0.40;99.90
24468;DHT22;12634;50.852;5.676;2023-01-25T15:04:30;0.30;99.90
24468;DHT22;12634;50.852;5.676;2023-01-25T15:06:57;0.30;99.90
24468;DHT22;12634;50.852;5.676;2023-01-25T15:09:33;0.30;99.90
24468;DHT22;12634;50.852;5.676;2023-01-25T15:12:03;0.30;99.90
24468;DHT22;12634;50.852;5.676;2023-01-25T15:14:31;0.40;99.90
24468;DHT22;12634;50.852;5.676;2023-01-25T15:16:59;0.40;99.90
24468;DHT22;12634;50.852;5.676;2023-01-25T15:19:28;0.20;99.90
24468;DHT22;12634;50.852;5.676;2023-01-25T15:21:57;0.30;99.90
24468;DHT22;12634;50.852;5.676;2023-01-25T15:24:25;0.30;99.90
24468;DHT22;12634;50.852;5.676;2023-01-25T15:26:54;0.30;99.90
24468;DHT22;12634;50.852;5.676;2023-01-25T15:29:24;0.30;99.90
24468;DHT22;12634;50.852;5.676;2023-01-25T15:31:53;0.30;99.90
24468;DHT22;12634;50.852;5.676;2023-01-25T15:34:24;0.30;99.90
24468;DHT22;12634;50.852;5.676;2023-01-25T15:36:51;0.30;99.90
24468;DHT22;12634;50.852;5.676;2023-01-25T15:39:19;0.20;99.90
24468;DHT22;12634;50.852;5.676;2023-01-25T15:41:47;0.20;99.90
24468;DHT22;12634;50.852;5.676;2023-01-25T15:44:14;0.10;99.90
24468;DHT22;12634;50.852;5.676;2023-01-25T15:46:46;0.10;99.90
24468;DHT22;12634;50.852;5.676;2023-01-25T15:49:24;0.20;99.90
24468;DHT22;12634;50.852;5.676;2023-01-25T15:51:51;0.10;99.90
24468;DHT22;12634;50.852;5.676;2023-01-25T15:54:18;0.10;99.90
24468;DHT22;12634;50.852;5.676;2023-01-25T15:56:49;0.00;99.90
24468;DHT22;12634;50.852;5.676;2023-01-25T15:59:17;0.00;99.90
24468;DHT22;12634;50.852;5.676;2023-01-25T16:01:46;0.00;99.90
24468;DHT22;12634;50.852;5.676;2023-01-25T16:04:13;0.00;99.90
24468;DHT22;12634;50.852;5.676;2023-01-25T16:06:42;-0.10;99.90
24468;DHT22;12634;50.852;5.676;2023-01-25T16:09:15;-0.10;99.90
24468;DHT22;12634;50.852;5.676;2023-01-25T16:11:44;-0.10;99.90
24468;DHT22;12634;50.852;5.676;2023-01-25T16:14:11;-0.10;99.90